KANB/ANB METAR and TAF weather

Enter ICAO airport designator
Station Type Date Time Source
KANB METAR 2018/04/20 08:53 UTC NOAA

KANB 200853Z AUTO 03005KT 10SM CLR 06/M01 A3025 RMK AO2 SLP248 T00611006 53009


Station Type Date Time Source
KANB Decoded METAR 2018/04/20 08:53 UTC NOAA

ANNISTON METRO AIRPORT, AL, United States (KANB) 33-35N 085-51W 183M
Apr 20, 2018 - 04:53 AM EDT / 2018.04.20 0853 UTC
Wind: from the NNE (030 degrees) at 6 MPH (5 KT):0
Visibility: 10 mile(s):0
Sky conditions: clear
Temperature: 43.0 F (6.1 C)
Dew Point: 30.9 F (-0.6 C)
Relative Humidity: 62%
Pressure (altimeter): 30.25 in. Hg (1024 hPa)
Pressure tendency: 0.03 inches (0.9 hPa) higher than three hours ago
ob: KANB 200853Z AUTO 03005KT 10SM CLR 06/M01 A3025 RMK AO2 SLP248 T00611006 53009
cycle: 9

Station Type Date Time Source
KANB TAF 2018/04/20 06:22 UTC NOAA

TAF KANB 200520Z 2006/2106 36005KT P6SM SKC
FM201400 06010KT P6SM SKC
FM210100 00000KT P6SM SKC


Example: see airport list